sensor_id;sensor_type;location;lat;lon;timestamp;temperature;humidity
74792;SHT30;63319;46.046;17.802;2023-01-08T00:02:04;14.18;52.76
74792;SHT30;63319;46.046;17.802;2023-01-08T00:05:07;14.20;52.70
74792;SHT30;63319;46.046;17.802;2023-01-08T00:08:12;14.17;52.70
74792;SHT30;63319;46.046;17.802;2023-01-08T00:11:16;14.18;52.73
74792;SHT30;63319;46.046;17.802;2023-01-08T00:14:18;14.17;52.69
74792;SHT30;63319;46.046;17.802;2023-01-08T00:17:21;14.17;52.56
74792;SHT30;63319;46.046;17.802;2023-01-08T00:20:24;14.17;52.62
74792;SHT30;63319;46.046;17.802;2023-01-08T00:23:27;14.14;52.41
74792;SHT30;63319;46.046;17.802;2023-01-08T00:26:30;14.16;52.63
74792;SHT30;63319;46.046;17.802;2023-01-08T00:29:33;14.13;52.71
74792;SHT30;63319;46.046;17.802;2023-01-08T00:32:36;14.13;52.55
74792;SHT30;63319;46.046;17.802;2023-01-08T00:35:39;14.14;52.78
74792;SHT30;63319;46.046;17.802;2023-01-08T00:38:46;14.12;52.76
74792;SHT30;63319;46.046;17.802;2023-01-08T00:41:49;14.10;52.85
74792;SHT30;63319;46.046;17.802;2023-01-08T00:44:52;14.10;52.70
74792;SHT30;63319;46.046;17.802;2023-01-08T00:47:55;14.12;52.60
74792;SHT30;63319;46.046;17.802;2023-01-08T00:51:00;14.09;52.57
74792;SHT30;63319;46.046;17.802;2023-01-08T00:54:03;14.10;52.85
74792;SHT30;63319;46.046;17.802;2023-01-08T00:57:09;14.07;52.83
74792;SHT30;63319;46.046;17.802;2023-01-08T01:00:14;14.09;52.85
74792;SHT30;63319;46.046;17.802;2023-01-08T01:03:26;14.06;52.85
74792;SHT30;63319;46.046;17.802;2023-01-08T01:06:29;14.06;52.60
74792;SHT30;63319;46.046;17.802;2023-01-08T01:09:32;14.07;52.98
74792;SHT30;63319;46.046;17.802;2023-01-08T01:12:36;14.06;52.72
74792;SHT30;63319;46.046;17.802;2023-01-08T01:15:40;14.03;52.75
74792;SHT30;63319;46.046;17.802;2023-01-08T01:18:43;14.02;52.78
74792;SHT30;63319;46.046;17.802;2023-01-08T01:21:46;14.06;52.60
74792;SHT30;63319;46.046;17.802;2023-01-08T01:24:49;14.04;52.87
74792;SHT30;63319;46.046;17.802;2023-01-08T01:27:51;14.03;52.75
74792;SHT30;63319;46.046;17.802;2023-01-08T01:30:55;14.03;52.54
74792;SHT30;63319;46.046;17.802;2023-01-08T01:33:58;14.02;52.62
74792;SHT30;63319;46.046;17.802;2023-01-08T01:37:01;13.99;52.58
74792;SHT30;63319;46.046;17.802;2023-01-08T01:40:06;13.99;52.64
74792;SHT30;63319;46.046;17.802;2023-01-08T01:43:12;13.99;52.60
74792;SHT30;63319;46.046;17.802;2023-01-08T01:46:38;13.97;52.80
74792;SHT30;63319;46.046;17.802;2023-01-08T01:49:43;13.97;52.84
74792;SHT30;63319;46.046;17.802;2023-01-08T01:53:06;13.96;53.01
74792;SHT30;63319;46.046;17.802;2023-01-08T01:56:10;13.94;52.88
74792;SHT30;63319;46.046;17.802;2023-01-08T01:59:13;13.96;52.79
74792;SHT30;63319;46.046;17.802;2023-01-08T02:02:16;13.93;52.82
74792;SHT30;63319;46.046;17.802;2023-01-08T02:05:27;13.96;53.00
74792;SHT30;63319;46.046;17.802;2023-01-08T02:09:00;13.93;52.78
74792;SHT30;63319;46.046;17.802;2023-01-08T02:18:47;13.90;52.87
74792;SHT30;63319;46.046;17.802;2023-01-08T02:22:22;13.93;52.77
74792;SHT30;63319;46.046;17.802;2023-01-08T02:28:30;13.91;53.00
74792;SHT30;63319;46.046;17.802;2023-01-08T02:31:38;13.90;53.02
74792;SHT30;63319;46.046;17.802;2023-01-08T02:34:42;13.90;52.95
74792;SHT30;63319;46.046;17.802;2023-01-08T02:37:44;13.89;53.02
74792;SHT30;63319;46.046;17.802;2023-01-08T02:40:56;13.90;52.96
74792;SHT30;63319;46.046;17.802;2023-01-08T02:44:00;13.89;52.97
74792;SHT30;63319;46.046;17.802;2023-01-08T02:47:07;13.90;52.92
74792;SHT30;63319;46.046;17.802;2023-01-08T02:53:50;13.87;52.99
74792;SHT30;63319;46.046;17.802;2023-01-08T02:57:00;13.87;52.92
74792;SHT30;63319;46.046;17.802;2023-01-08T03:00:05;13.85;52.97
74792;SHT30;63319;46.046;17.802;2023-01-08T03:03:23;13.86;52.72
74792;SHT30;63319;46.046;17.802;2023-01-08T03:06:26;13.86;52.81
74792;SHT30;63319;46.046;17.802;2023-01-08T03:09:31;13.86;52.88
74792;SHT30;63319;46.046;17.802;2023-01-08T03:12:48;13.83;52.79
74792;SHT30;63319;46.046;17.802;2023-01-08T03:15:55;13.83;52.93
74792;SHT30;63319;46.046;17.802;2023-01-08T03:22:38;13.83;52.74
74792;SHT30;63319;46.046;17.802;2023-01-08T03:25:45;13.83;52.82
74792;SHT30;63319;46.046;17.802;2023-01-08T03:28:51;13.83;52.99
74792;SHT30;63319;46.046;17.802;2023-01-08T03:31:57;13.79;52.94
74792;SHT30;63319;46.046;17.802;2023-01-08T03:35:04;13.80;52.79
74792;SHT30;63319;46.046;17.802;2023-01-08T03:38:23;13.79;52.95
74792;SHT30;63319;46.046;17.802;2023-01-08T03:41:30;13.79;53.06
74792;SHT30;63319;46.046;17.802;2023-01-08T03:44:34;13.76;52.90
74792;SHT30;63319;46.046;17.802;2023-01-08T03:47:38;13.79;52.81
74792;SHT30;63319;46.046;17.802;2023-01-08T03:50:41;13.75;53.14
74792;SHT30;63319;46.046;17.802;2023-01-08T03:53:44;13.79;52.85
74792;SHT30;63319;46.046;17.802;2023-01-08T03:56:48;13.76;52.98
74792;SHT30;63319;46.046;17.802;2023-01-08T03:59:52;13.76;52.76
74792;SHT30;63319;46.046;17.802;2023-01-08T04:02:55;13.76;52.99
74792;SHT30;63319;46.046;17.802;2023-01-08T04:05:59;13.76;53.02
74792;SHT30;63319;46.046;17.802;2023-01-08T04:09:02;13.76;52.94
74792;SHT30;63319;46.046;17.802;2023-01-08T04:12:06;13.76;53.07
74792;SHT30;63319;46.046;17.802;2023-01-08T04:15:09;13.75;52.85
74792;SHT30;63319;46.046;17.802;2023-01-08T04:18:11;13.73;52.72
74792;SHT30;63319;46.046;17.802;2023-01-08T04:21:14;13.75;52.68
74792;SHT30;63319;46.046;17.802;2023-01-08T04:24:20;13.73;53.05
74792;SHT30;63319;46.046;17.802;2023-01-08T04:27:23;13.73;52.92
74792;SHT30;63319;46.046;17.802;2023-01-08T04:30:27;13.73;53.21
74792;SHT30;63319;46.046;17.802;2023-01-08T04:33:30;13.70;52.73
74792;SHT30;63319;46.046;17.802;2023-01-08T04:36:33;13.70;52.49
74792;SHT30;63319;46.046;17.802;2023-01-08T04:39:36;13.70;52.64
74792;SHT30;63319;46.046;17.802;2023-01-08T04:42:39;13.67;52.72
74792;SHT30;63319;46.046;17.802;2023-01-08T04:45:41;13.66;52.66
74792;SHT30;63319;46.046;17.802;2023-01-08T04:48:44;13.67;52.81
74792;SHT30;63319;46.046;17.802;2023-01-08T04:51:47;13.66;52.52
74792;SHT30;63319;46.046;17.802;2023-01-08T04:54:50;13.66;52.59
74792;SHT30;63319;46.046;17.802;2023-01-08T04:57:53;13.67;52.60
74792;SHT30;63319;46.046;17.802;2023-01-08T05:00:55;13.65;52.47
74792;SHT30;63319;46.046;17.802;2023-01-08T05:04:01;13.65;52.92
74792;SHT30;63319;46.046;17.802;2023-01-08T05:07:04;13.66;52.52
74792;SHT30;63319;46.046;17.802;2023-01-08T05:10:08;13.62;52.53
74792;SHT30;63319;46.046;17.802;2023-01-08T05:13:11;13.66;52.94
74792;SHT30;63319;46.046;17.802;2023-01-08T05:16:14;13.65;52.72
74792;SHT30;63319;46.046;17.802;2023-01-08T05:19:17;13.61;52.47
74792;SHT30;63319;46.046;17.802;2023-01-08T05:22:20;13.62;52.68
74792;SHT30;63319;46.046;17.802;2023-01-08T05:25:23;13.61;53.00
74792;SHT30;63319;46.046;17.802;2023-01-08T05:28:26;13.61;52.87
74792;SHT30;63319;46.046;17.802;2023-01-08T05:31:29;13.59;52.84
74792;SHT30;63319;46.046;17.802;2023-01-08T05:34:32;13.61;52.70
74792;SHT30;63319;46.046;17.802;2023-01-08T05:37:36;13.59;52.66
74792;SHT30;63319;46.046;17.802;2023-01-08T05:40:39;13.56;52.45
74792;SHT30;63319;46.046;17.802;2023-01-08T05:43:42;13.61;52.60
74792;SHT30;63319;46.046;17.802;2023-01-08T05:46:45;13.59;52.51
74792;SHT30;63319;46.046;17.802;2023-01-08T05:49:48;13.58;52.98
74792;SHT30;63319;46.046;17.802;2023-01-08T05:52:50;13.56;52.72
74792;SHT30;63319;46.046;17.802;2023-01-08T05:56:02;13.58;52.44
74792;SHT30;63319;46.046;17.802;2023-01-08T05:59:05;13.56;52.33
74792;SHT30;63319;46.046;17.802;2023-01-08T06:02:08;13.56;52.39
74792;SHT30;63319;46.046;17.802;2023-01-08T06:05:11;13.54;52.28
74792;SHT30;63319;46.046;17.802;2023-01-08T06:08:14;13.55;52.31
74792;SHT30;63319;46.046;17.802;2023-01-08T06:11:17;13.54;52.42
74792;SHT30;63319;46.046;17.802;2023-01-08T06:14:20;13.54;52.17
74792;SHT30;63319;46.046;17.802;2023-01-08T06:17:23;13.51;52.44
74792;SHT30;63319;46.046;17.802;2023-01-08T06:20:28;13.52;52.84
74792;SHT30;63319;46.046;17.802;2023-01-08T06:23:31;13.51;52.64
74792;SHT30;63319;46.046;17.802;2023-01-08T06:26:34;13.46;52.37
74792;SHT30;63319;46.046;17.802;2023-01-08T06:29:37;13.49;52.42
74792;SHT30;63319;46.046;17.802;2023-01-08T06:32:40;13.49;52.99
74792;SHT30;63319;46.046;17.802;2023-01-08T06:35:43;13.54;52.87
74792;SHT30;63319;46.046;17.802;2023-01-08T06:38:52;13.52;52.75
74792;SHT30;63319;46.046;17.802;2023-01-08T06:41:55;13.54;52.91
74792;SHT30;63319;46.046;17.802;2023-01-08T06:44:58;13.52;52.46
74792;SHT30;63319;46.046;17.802;2023-01-08T06:48:02;13.52;52.40
74792;SHT30;63319;46.046;17.802;2023-01-08T06:51:06;13.51;52.27
74792;SHT30;63319;46.046;17.802;2023-01-08T06:54:08;13.51;52.42
74792;SHT30;63319;46.046;17.802;2023-01-08T06:57:14;13.51;52.61
74792;SHT30;63319;46.046;17.802;2023-01-08T07:00:17;13.51;52.56
74792;SHT30;63319;46.046;17.802;2023-01-08T07:03:20;13.52;52.82
74792;SHT30;63319;46.046;17.802;2023-01-08T07:06:23;13.52;52.72
74792;SHT30;63319;46.046;17.802;2023-01-08T07:09:26;13.54;52.63
74792;SHT30;63319;46.046;17.802;2023-01-08T07:12:29;13.58;52.43
74792;SHT30;63319;46.046;17.802;2023-01-08T07:15:32;13.56;52.40
74792;SHT30;63319;46.046;17.802;2023-01-08T07:18:35;13.61;52.17
74792;SHT30;63319;46.046;17.802;2023-01-08T07:21:38;13.62;52.34
74792;SHT30;63319;46.046;17.802;2023-01-08T07:24:41;13.67;51.68
74792;SHT30;63319;46.046;17.802;2023-01-08T07:27:44;13.75;51.92
74792;SHT30;63319;46.046;17.802;2023-01-08T07:30:47;14.02;50.60
74792;SHT30;63319;46.046;17.802;2023-01-08T07:33:49;14.27;50.65
74792;SHT30;63319;46.046;17.802;2023-01-08T07:36:52;14.45;50.31
74792;SHT30;63319;46.046;17.802;2023-01-08T07:39:55;14.61;49.62
74792;SHT30;63319;46.046;17.802;2023-01-08T07:43:01;14.79;49.50
74792;SHT30;63319;46.046;17.802;2023-01-08T07:46:04;14.92;48.22
74792;SHT30;63319;46.046;17.802;2023-01-08T07:49:07;15.06;47.78
74792;SHT30;63319;46.046;17.802;2023-01-08T07:52:10;15.16;47.57
74792;SHT30;63319;46.046;17.802;2023-01-08T07:55:13;15.29;47.16
74792;SHT30;63319;46.046;17.802;2023-01-08T07:58:16;15.43;46.85
74792;SHT30;63319;46.046;17.802;2023-01-08T08:01:20;15.57;46.59
74792;SHT30;63319;46.046;17.802;2023-01-08T08:04:26;15.69;45.98
74792;SHT30;63319;46.046;17.802;2023-01-08T08:07:30;15.82;45.93
74792;SHT30;63319;46.046;17.802;2023-01-08T08:10:33;15.95;45.27
74792;SHT30;63319;46.046;17.802;2023-01-08T08:13:36;16.05;45.29
74792;SHT30;63319;46.046;17.802;2023-01-08T08:16:44;15.96;45.21
74792;SHT30;63319;46.046;17.802;2023-01-08T08:19:46;15.87;45.93
74792;SHT30;63319;46.046;17.802;2023-01-08T08:22:49;15.92;46.32
74792;SHT30;63319;46.046;17.802;2023-01-08T08:25:52;16.20;45.33
74792;SHT30;63319;46.046;17.802;2023-01-08T08:28:55;16.40;44.85
74792;SHT30;63319;46.046;17.802;2023-01-08T08:31:58;16.56;44.99
74792;SHT30;63319;46.046;17.802;2023-01-08T08:35:01;16.70;44.86
74792;SHT30;63319;46.046;17.802;2023-01-08T08:38:04;16.80;45.15
74792;SHT30;63319;46.046;17.802;2023-01-08T08:41:07;16.83;45.36
74792;SHT30;63319;46.046;17.802;2023-01-08T08:44:09;16.96;45.14
74792;SHT30;63319;46.046;17.802;2023-01-08T08:47:13;17.07;44.98
74792;SHT30;63319;46.046;17.802;2023-01-08T08:50:17;17.16;44.64
74792;SHT30;63319;46.046;17.802;2023-01-08T08:53:20;17.23;44.74
74792;SHT30;63319;46.046;17.802;2023-01-08T08:56:23;17.31;44.64
74792;SHT30;63319;46.046;17.802;2023-01-08T08:59:26;17.36;44.53
74792;SHT30;63319;46.046;17.802;2023-01-08T09:02:29;17.46;44.37
74792;SHT30;63319;46.046;17.802;2023-01-08T09:05:35;17.52;44.35
74792;SHT30;63319;46.046;17.802;2023-01-08T09:08:38;17.56;44.31
74792;SHT30;63319;46.046;17.802;2023-01-08T09:11:41;17.60;44.23
74792;SHT30;63319;46.046;17.802;2023-01-08T09:14:44;17.69;44.10
74792;SHT30;63319;46.046;17.802;2023-01-08T09:17:57;17.74;44.08
74792;SHT30;63319;46.046;17.802;2023-01-08T09:21:04;17.77;44.01
74792;SHT30;63319;46.046;17.802;2023-01-08T09:24:07;17.81;43.96
74792;SHT30;63319;46.046;17.802;2023-01-08T09:27:11;17.86;43.90
74792;SHT30;63319;46.046;17.802;2023-01-08T09:30:13;17.84;44.00
74792;SHT30;63319;46.046;17.802;2023-01-08T09:33:16;17.87;44.04
74792;SHT30;63319;46.046;17.802;2023-01-08T09:36:19;17.86;44.03
74792;SHT30;63319;46.046;17.802;2023-01-08T09:39:22;17.90;44.03
74792;SHT30;63319;46.046;17.802;2023-01-08T09:42:26;17.91;44.06
74792;SHT30;63319;46.046;17.802;2023-01-08T09:45:31;17.86;44.19
74792;SHT30;63319;46.046;17.802;2023-01-08T09:48:38;17.90;44.05
74792;SHT30;63319;46.046;17.802;2023-01-08T09:51:41;17.93;44.05
74792;SHT30;63319;46.046;17.802;2023-01-08T09:54:44;17.96;44.08
74792;SHT30;63319;46.046;17.802;2023-01-08T09:57:48;17.96;44.20
74792;SHT30;63319;46.046;17.802;2023-01-08T10:00:51;17.81;44.50
74792;SHT30;63319;46.046;17.802;2023-01-08T10:04:04;17.74;44.77
74792;SHT30;63319;46.046;17.802;2023-01-08T10:07:27;17.66;45.00
74792;SHT30;63319;46.046;17.802;2023-01-08T10:10:32;17.66;45.15
74792;SHT30;63319;46.046;17.802;2023-01-08T10:13:38;17.63;45.24
74792;SHT30;63319;46.046;17.802;2023-01-08T10:16:41;17.57;45.35
74792;SHT30;63319;46.046;17.802;2023-01-08T10:19:45;17.59;45.44
74792;SHT30;63319;46.046;17.802;2023-01-08T10:22:49;17.59;45.49
74792;SHT30;63319;46.046;17.802;2023-01-08T10:25:58;17.73;45.27
74792;SHT30;63319;46.046;17.802;2023-01-08T10:29:15;17.91;44.88
74792;SHT30;63319;46.046;17.802;2023-01-08T10:32:31;18.08;44.56
74792;SHT30;63319;46.046;17.802;2023-01-08T10:35:39;18.21;44.29
74792;SHT30;63319;46.046;17.802;2023-01-08T10:38:59;18.31;44.16
74792;SHT30;63319;46.046;17.802;2023-01-08T10:42:04;18.37;44.07
74792;SHT30;63319;46.046;17.802;2023-01-08T10:45:24;18.44;43.97
74792;SHT30;63319;46.046;17.802;2023-01-08T10:48:37;18.46;44.01
74792;SHT30;63319;46.046;17.802;2023-01-08T10:51:48;18.44;44.11
74792;SHT30;63319;46.046;17.802;2023-01-08T10:54:52;18.39;44.23
74792;SHT30;63319;46.046;17.802;2023-01-08T11:01:27;18.60;43.94
74792;SHT30;63319;46.046;17.802;2023-01-08T11:04:33;18.82;43.53
74792;SHT30;63319;46.046;17.802;2023-01-08T11:07:37;18.97;43.30
74792;SHT30;63319;46.046;17.802;2023-01-08T11:10:42;19.11;43.00
74792;SHT30;63319;46.046;17.802;2023-01-08T11:14:00;19.11;43.05
74792;SHT30;63319;46.046;17.802;2023-01-08T11:17:10;19.11;42.97
74792;SHT30;63319;46.046;17.802;2023-01-08T11:20:22;19.23;42.94
74792;SHT30;63319;46.046;17.802;2023-01-08T11:23:26;19.25;42.77
74792;SHT30;63319;46.046;17.802;2023-01-08T11:26:30;19.24;42.88
74792;SHT30;63319;46.046;17.802;2023-01-08T11:36:21;19.62;42.07
74792;SHT30;63319;46.046;17.802;2023-01-08T11:39:26;19.72;41.88
74792;SHT30;63319;46.046;17.802;2023-01-08T11:42:45;19.76;41.85
74792;SHT30;63319;46.046;17.802;2023-01-08T12:02:50;19.94;41.57
74792;SHT30;63319;46.046;17.802;2023-01-08T12:09:39;19.99;41.53
74792;SHT30;63319;46.046;17.802;2023-01-08T12:19:57;19.81;41.95
74792;SHT30;63319;46.046;17.802;2023-01-08T12:33:29;19.89;41.78
74792;SHT30;63319;46.046;17.802;2023-01-08T12:36:50;19.89;41.90
74792;SHT30;63319;46.046;17.802;2023-01-08T12:40:02;19.97;41.72
74792;SHT30;63319;46.046;17.802;2023-01-08T12:43:19;19.93;41.88
74792;SHT30;63319;46.046;17.802;2023-01-08T12:46:27;19.97;41.63
74792;SHT30;63319;46.046;17.802;2023-01-08T12:50:20;20.02;41.52
74792;SHT30;63319;46.046;17.802;2023-01-08T12:53:40;19.97;41.79
74792;SHT30;63319;46.046;17.802;2023-01-08T13:00:29;20.00;41.81
74792;SHT30;63319;46.046;17.802;2023-01-08T13:03:35;19.89;41.95
74792;SHT30;63319;46.046;17.802;2023-01-08T13:06:49;19.79;42.17
74792;SHT30;63319;46.046;17.802;2023-01-08T13:09:59;19.79;42.26
74792;SHT30;63319;46.046;17.802;2023-01-08T13:13:05;19.75;42.49
74792;SHT30;63319;46.046;17.802;2023-01-08T13:19:24;19.38;43.13
74792;SHT30;63319;46.046;17.802;2023-01-08T13:22:34;19.41;43.22
74792;SHT30;63319;46.046;17.802;2023-01-08T13:25:53;19.42;43.09
74792;SHT30;63319;46.046;17.802;2023-01-08T13:29:06;19.34;43.34
74792;SHT30;63319;46.046;17.802;2023-01-08T13:32:42;19.21;43.53
74792;SHT30;63319;46.046;17.802;2023-01-08T13:35:47;19.20;43.63
74792;SHT30;63319;46.046;17.802;2023-01-08T13:39:23;19.04;43.91
74792;SHT30;63319;46.046;17.802;2023-01-08T13:42:33;18.92;44.20
74792;SHT30;63319;46.046;17.802;2023-01-08T13:45:35;18.82;44.42
74792;SHT30;63319;46.046;17.802;2023-01-08T13:49:00;18.66;44.68
74792;SHT30;63319;46.046;17.802;2023-01-08T13:52:04;18.59;44.86
74792;SHT30;63319;46.046;17.802;2023-01-08T13:58:25;18.42;45.17
74792;SHT30;63319;46.046;17.802;2023-01-08T14:01:35;18.35;45.21
74792;SHT30;63319;46.046;17.802;2023-01-08T14:04:47;18.31;45.40
74792;SHT30;63319;46.046;17.802;2023-01-08T14:07:51;18.27;45.48
74792;SHT30;63319;46.046;17.802;2023-01-08T14:10:54;18.22;45.67
74792;SHT30;63319;46.046;17.802;2023-01-08T14:14:00;18.15;45.72
74792;SHT30;63319;46.046;17.802;2023-01-08T14:17:03;18.10;45.90
74792;SHT30;63319;46.046;17.802;2023-01-08T14:20:22;18.05;45.99
74792;SHT30;63319;46.046;17.802;2023-01-08T14:23:30;18.01;46.04
74792;SHT30;63319;46.046;17.802;2023-01-08T14:26:35;17.96;46.16
74792;SHT30;63319;46.046;17.802;2023-01-08T14:29:44;17.91;46.26
74792;SHT30;63319;46.046;17.802;2023-01-08T14:32:46;17.87;46.39
74792;SHT30;63319;46.046;17.802;2023-01-08T14:35:50;17.84;46.43
74792;SHT30;63319;46.046;17.802;2023-01-08T14:38:53;17.79;46.54
74792;SHT30;63319;46.046;17.802;2023-01-08T14:45:30;17.71;46.73
74792;SHT30;63319;46.046;17.802;2023-01-08T14:48:41;17.69;46.80
74792;SHT30;63319;46.046;17.802;2023-01-08T14:51:45;17.62;46.96
74792;SHT30;63319;46.046;17.802;2023-01-08T14:54:51;17.60;46.98
74792;SHT30;63319;46.046;17.802;2023-01-08T14:57:55;17.56;47.01
74792;SHT30;63319;46.046;17.802;2023-01-08T15:01:06;17.50;47.17
74792;SHT30;63319;46.046;17.802;2023-01-08T15:04:16;17.49;47.26
74792;SHT30;63319;46.046;17.802;2023-01-08T15:07:24;17.46;47.33
74792;SHT30;63319;46.046;17.802;2023-01-08T15:10:39;17.38;47.42
74792;SHT30;63319;46.046;17.802;2023-01-08T15:13:43;17.39;47.41
74792;SHT30;63319;46.046;17.802;2023-01-08T15:16:46;17.36;47.57
74792;SHT30;63319;46.046;17.802;2023-01-08T15:19:54;17.38;47.54
74792;SHT30;63319;46.046;17.802;2023-01-08T15:22:58;17.35;47.59
74792;SHT30;63319;46.046;17.802;2023-01-08T15:26:01;17.36;47.55
74792;SHT30;63319;46.046;17.802;2023-01-08T15:29:05;17.39;47.52
74792;SHT30;63319;46.046;17.802;2023-01-08T15:32:10;17.39;47.53
74792;SHT30;63319;46.046;17.802;2023-01-08T15:35:16;17.39;47.58
74792;SHT30;63319;46.046;17.802;2023-01-08T15:38:19;17.35;47.56
74792;SHT30;63319;46.046;17.802;2023-01-08T15:41:23;17.35;47.64
74792;SHT30;63319;46.046;17.802;2023-01-08T15:44:45;17.29;47.66
74792;SHT30;63319;46.046;17.802;2023-01-08T15:47:48;17.28;47.70
74792;SHT30;63319;46.046;17.802;2023-01-08T15:50:51;17.26;47.80
74792;SHT30;63319;46.046;17.802;2023-01-08T15:53:54;17.22;47.80
74792;SHT30;63319;46.046;17.802;2023-01-08T15:56:57;17.22;47.94
74792;SHT30;63319;46.046;17.802;2023-01-08T16:00:00;17.18;47.96
74792;SHT30;63319;46.046;17.802;2023-01-08T16:03:07;17.16;48.03
74792;SHT30;63319;46.046;17.802;2023-01-08T16:06:10;17.15;48.11
74792;SHT30;63319;46.046;17.802;2023-01-08T16:09:13;17.12;48.14
74792;SHT30;63319;46.046;17.802;2023-01-08T16:12:16;17.11;48.17
74792;SHT30;63319;46.046;17.802;2023-01-08T16:15:20;17.08;48.27
74792;SHT30;63319;46.046;17.802;2023-01-08T16:18:24;17.05;48.25
74792;SHT30;63319;46.046;17.802;2023-01-08T16:21:27;17.04;48.35
74792;SHT30;63319;46.046;17.802;2023-01-08T16:24:30;17.01;48.44
74792;SHT30;63319;46.046;17.802;2023-01-08T16:27:34;17.00;48.46
74792;SHT30;63319;46.046;17.802;2023-01-08T16:30:38;16.96;48.52
74792;SHT30;63319;46.046;17.802;2023-01-08T16:33:43;16.95;48.48
74792;SHT30;63319;46.046;17.802;2023-01-08T16:36:48;16.94;48.60
74792;SHT30;63319;46.046;17.802;2023-01-08T16:39:51;16.91;48.65
74792;SHT30;63319;46.046;17.802;2023-01-08T16:42:59;16.89;48.66
74792;SHT30;63319;46.046;17.802;2023-01-08T16:46:11;16.87;48.75
74792;SHT30;63319;46.046;17.802;2023-01-08T16:49:16;16.85;48.83
74792;SHT30;63319;46.046;17.802;2023-01-08T16:52:19;16.87;48.80
74792;SHT30;63319;46.046;17.802;2023-01-08T16:55:22;16.84;48.93
74792;SHT30;63319;46.046;17.802;2023-01-08T16:58:26;16.81;48.87
74792;SHT30;63319;46.046;17.802;2023-01-08T17:01:30;16.80;48.97
74792;SHT30;63319;46.046;17.802;2023-01-08T17:04:34;16.78;49.04
74792;SHT30;63319;46.046;17.802;2023-01-08T17:07:37;16.77;49.09
74792;SHT30;63319;46.046;17.802;2023-01-08T17:10:41;16.74;49.11
74792;SHT30;63319;46.046;17.802;2023-01-08T17:13:45;16.73;49.19
74792;SHT30;63319;46.046;17.802;2023-01-08T17:16:49;16.71;49.20
74792;SHT30;63319;46.046;17.802;2023-01-08T17:19:52;16.70;49.24
74792;SHT30;63319;46.046;17.802;2023-01-08T17:22:58;16.70;49.27
74792;SHT30;63319;46.046;17.802;2023-01-08T17:26:08;16.70;49.29
74792;SHT30;63319;46.046;17.802;2023-01-08T17:29:12;16.67;49.34
74792;SHT30;63319;46.046;17.802;2023-01-08T17:32:15;16.64;49.41
74792;SHT30;63319;46.046;17.802;2023-01-08T17:35:19;16.61;49.38
74792;SHT30;63319;46.046;17.802;2023-01-08T17:38:23;16.59;49.49
74792;SHT30;63319;46.046;17.802;2023-01-08T17:41:27;16.57;49.54
74792;SHT30;63319;46.046;17.802;2023-01-08T17:44:50;16.57;49.51
74792;SHT30;63319;46.046;17.802;2023-01-08T17:47:53;16.54;49.60
74792;SHT30;63319;46.046;17.802;2023-01-08T17:50:57;16.54;49.67
74792;SHT30;63319;46.046;17.802;2023-01-08T17:54:02;16.53;49.70
74792;SHT30;63319;46.046;17.802;2023-01-08T17:57:06;16.50;49.75
74792;SHT30;63319;46.046;17.802;2023-01-08T18:00:10;16.49;49.76
74792;SHT30;63319;46.046;17.802;2023-01-08T18:03:14;16.46;49.83
74792;SHT30;63319;46.046;17.802;2023-01-08T18:06:18;16.46;49.77
74792;SHT30;63319;46.046;17.802;2023-01-08T18:09:22;16.46;49.95
74792;SHT30;63319;46.046;17.802;2023-01-08T18:12:26;16.43;50.05
74792;SHT30;63319;46.046;17.802;2023-01-08T18:15:31;16.40;50.00
74792;SHT30;63319;46.046;17.802;2023-01-08T18:18:36;16.42;50.05
74792;SHT30;63319;46.046;17.802;2023-01-08T18:21:40;16.39;50.02
74792;SHT30;63319;46.046;17.802;2023-01-08T18:24:44;16.36;49.93
74792;SHT30;63319;46.046;17.802;2023-01-08T18:27:47;16.37;50.13
74792;SHT30;63319;46.046;17.802;2023-01-08T18:30:51;16.34;50.22
74792;SHT30;63319;46.046;17.802;2023-01-08T18:33:55;16.36;50.24
74792;SHT30;63319;46.046;17.802;2023-01-08T18:36:59;16.32;50.02
74792;SHT30;63319;46.046;17.802;2023-01-08T18:40:02;16.32;50.12
74792;SHT30;63319;46.046;17.802;2023-01-08T18:43:07;16.32;49.99
74792;SHT30;63319;46.046;17.802;2023-01-08T18:46:10;16.32;50.28
74792;SHT30;63319;46.046;17.802;2023-01-08T18:49:14;16.27;50.27
74792;SHT30;63319;46.046;17.802;2023-01-08T18:52:18;16.29;50.36
74792;SHT30;63319;46.046;17.802;2023-01-08T18:55:22;16.29;50.40
74792;SHT30;63319;46.046;17.802;2023-01-08T18:58:26;16.27;50.45
74792;SHT30;63319;46.046;17.802;2023-01-08T19:01:31;16.26;50.50
74792;SHT30;63319;46.046;17.802;2023-01-08T19:04:35;16.25;50.52
74792;SHT30;63319;46.046;17.802;2023-01-08T19:07:39;16.26;50.48
74792;SHT30;63319;46.046;17.802;2023-01-08T19:10:44;16.25;50.55
74792;SHT30;63319;46.046;17.802;2023-01-08T19:13:48;16.23;50.59
74792;SHT30;63319;46.046;17.802;2023-01-08T19:16:55;16.22;50.47
74792;SHT30;63319;46.046;17.802;2023-01-08T19:20:00;16.22;50.58
74792;SHT30;63319;46.046;17.802;2023-01-08T19:23:03;16.19;50.47
74792;SHT30;63319;46.046;17.802;2023-01-08T19:26:09;16.22;50.37
74792;SHT30;63319;46.046;17.802;2023-01-08T19:29:14;16.22;50.51
74792;SHT30;63319;46.046;17.802;2023-01-08T19:32:20;16.19;50.51
74792;SHT30;63319;46.046;17.802;2023-01-08T19:35:24;16.17;50.36
74792;SHT30;63319;46.046;17.802;2023-01-08T19:38:27;16.19;50.32
74792;SHT30;63319;46.046;17.802;2023-01-08T19:41:32;16.19;50.40
74792;SHT30;63319;46.046;17.802;2023-01-08T19:44:55;16.16;50.44
74792;SHT30;63319;46.046;17.802;2023-01-08T19:48:00;16.16;50.48
74792;SHT30;63319;46.046;17.802;2023-01-08T19:51:06;16.17;50.46
74792;SHT30;63319;46.046;17.802;2023-01-08T19:54:10;16.19;50.57
74792;SHT30;63319;46.046;17.802;2023-01-08T19:57:14;16.19;50.58
74792;SHT30;63319;46.046;17.802;2023-01-08T20:00:18;16.16;50.64
74792;SHT30;63319;46.046;17.802;2023-01-08T20:03:27;16.16;50.62
74792;SHT30;63319;46.046;17.802;2023-01-08T20:06:31;16.17;50.59
74792;SHT30;63319;46.046;17.802;2023-01-08T20:09:35;16.17;50.76
74792;SHT30;63319;46.046;17.802;2023-01-08T20:12:38;16.17;50.72
74792;SHT30;63319;46.046;17.802;2023-01-08T20:15:54;16.15;50.72
74792;SHT30;63319;46.046;17.802;2023-01-08T20:19:01;16.15;50.68
74792;SHT30;63319;46.046;17.802;2023-01-08T20:22:07;16.16;50.67
74792;SHT30;63319;46.046;17.802;2023-01-08T20:25:11;16.15;50.65
74792;SHT30;63319;46.046;17.802;2023-01-08T20:28:14;16.13;50.70
74792;SHT30;63319;46.046;17.802;2023-01-08T20:31:22;16.15;50.65
74792;SHT30;63319;46.046;17.802;2023-01-08T20:34:27;16.15;50.74